createdAt,value
2023-02-06T00:01:51.192Z,60.91
2023-02-06T00:04:19.670Z,61.92
2023-02-06T00:06:48.322Z,62.65
2023-02-06T00:09:16.787Z,64.55
2023-02-06T00:11:45.238Z,64.49
2023-02-06T00:14:13.765Z,63.33
2023-02-06T00:16:42.534Z,62.22
2023-02-06T00:19:11.003Z,61.23
2023-02-06T00:21:39.441Z,60.19
2023-02-06T00:24:08.161Z,58.81
2023-02-06T00:26:36.683Z,58.13
2023-02-06T00:29:05.291Z,59.27
2023-02-06T00:31:33.985Z,60.52
2023-02-06T00:34:04.218Z,61.67
2023-02-06T00:36:33.987Z,62.99
2023-02-06T00:39:02.623Z,64.63
2023-02-06T00:41:31.109Z,63.91
2023-02-06T00:43:59.652Z,62.44
2023-02-06T00:46:28.102Z,61.03
2023-02-06T00:48:56.578Z,59.77
2023-02-06T00:51:25.023Z,58.26
2023-02-06T00:53:53.807Z,58.62
2023-02-06T00:56:22.505Z,59.90
2023-02-06T00:58:50.972Z,61.15
2023-02-06T01:01:19.614Z,62.46
2023-02-06T01:03:48.157Z,64.56
2023-02-06T01:06:17.475Z,64.30
2023-02-06T01:08:47.245Z,62.79
2023-02-06T01:11:20.867Z,61.33
2023-02-06T01:13:49.893Z,60.04
2023-02-06T01:16:22.953Z,58.48
2023-02-06T01:18:51.723Z,58.29
2023-02-06T01:21:23.353Z,59.44
2023-02-06T01:23:53.952Z,60.55
2023-02-06T01:26:27.165Z,61.78
2023-02-06T01:28:57.142Z,63.59
2023-02-06T01:31:28.434Z,64.77
2023-02-06T01:33:59.028Z,63.83
2023-02-06T01:36:28.224Z,62.59
2023-02-06T01:38:58.515Z,61.39
2023-02-06T01:41:27.302Z,60.17
2023-02-06T01:44:17.766Z,58.89
2023-02-06T01:46:48.220Z,58.25
2023-02-06T01:49:30.545Z,59.66
2023-02-06T01:52:07.602Z,61.03
2023-02-06T01:54:36.445Z,62.25
2023-02-06T01:57:09.826Z,64.03
2023-02-06T01:59:42.380Z,64.05
2023-02-06T02:02:12.646Z,62.73
2023-02-06T02:04:41.809Z,61.42
2023-02-06T02:07:33.384Z,60.18
2023-02-06T02:10:02.234Z,59.00
2023-02-06T02:12:31.276Z,58.02
2023-02-06T02:15:00.149Z,58.97
2023-02-06T02:17:47.230Z,60.26
2023-02-06T02:20:26.802Z,61.19
2023-02-06T02:23:13.966Z,61.92
2023-02-06T02:25:52.427Z,64.11
2023-02-06T02:28:20.845Z,64.65
2023-02-06T02:31:14.378Z,63.63
2023-02-06T02:34:22.948Z,62.15
2023-02-06T02:37:17.375Z,60.91
2023-02-06T02:40:00.001Z,59.57
2023-02-06T02:42:38.315Z,58.12
2023-02-06T02:45:27.167Z,59.14
2023-02-06T02:48:04.761Z,60.63
2023-02-06T02:50:34.724Z,62.07
2023-02-06T02:53:05.489Z,63.96
2023-02-06T02:55:34.163Z,64.38
2023-02-06T02:58:10.529Z,62.96
2023-02-06T03:01:02.410Z,61.61
2023-02-06T03:03:34.812Z,60.45
2023-02-06T03:06:22.373Z,58.82
2023-02-06T03:09:00.782Z,58.36
2023-02-06T03:11:30.290Z,59.61
2023-02-06T03:14:10.416Z,60.82
2023-02-06T03:16:46.276Z,61.72
2023-02-06T03:19:23.774Z,63.09
2023-02-06T03:21:52.428Z,63.95
2023-02-06T03:24:25.852Z,63.44
2023-02-06T03:26:59.271Z,61.95
2023-02-06T03:29:32.025Z,60.57
2023-02-06T03:32:29.956Z,59.23
2023-02-06T03:35:04.026Z,58.26
2023-02-06T03:37:33.186Z,59.54
2023-02-06T03:40:02.730Z,60.82
2023-02-06T03:42:33.001Z,62.03
2023-02-06T03:45:08.497Z,64.02
2023-02-06T03:47:38.902Z,64.56
2023-02-06T03:50:10.276Z,63.27
2023-02-06T03:52:44.553Z,61.78
2023-02-06T03:55:16.856Z,60.59
2023-02-06T03:57:50.416Z,59.29
2023-02-06T04:00:20.576Z,58.06
2023-02-06T04:02:52.642Z,59.21
2023-02-06T04:05:21.742Z,60.60
2023-02-06T04:07:50.274Z,61.82
2023-02-06T04:10:18.983Z,63.33
2023-02-06T04:12:47.590Z,64.76
2023-02-06T04:15:16.178Z,63.77
2023-02-06T04:17:58.937Z,62.15
2023-02-06T04:20:30.063Z,60.57
2023-02-06T04:22:59.819Z,58.78
2023-02-06T04:25:28.373Z,57.76
2023-02-06T04:27:56.846Z,58.88
2023-02-06T04:30:25.417Z,60.18
2023-02-06T04:32:54.190Z,61.52
2023-02-06T04:35:22.726Z,62.98
2023-02-06T04:37:51.240Z,64.85
2023-02-06T04:40:19.782Z,64.09
2023-02-06T04:42:48.557Z,62.61
2023-02-06T04:45:17.019Z,61.35
2023-02-06T04:47:49.575Z,60.25
2023-02-06T04:50:19.078Z,58.94
2023-02-06T04:52:47.566Z,58.07
2023-02-06T04:55:16.239Z,59.22
2023-02-06T04:57:44.736Z,60.56
2023-02-06T05:00:14.868Z,61.71
2023-02-06T05:02:43.355Z,63.21
2023-02-06T05:05:13.170Z,64.62
2023-02-06T05:07:41.609Z,63.55
2023-02-06T05:10:10.289Z,61.91
2023-02-06T05:12:38.761Z,60.51
2023-02-06T05:15:08.351Z,59.25
2023-02-06T05:17:36.934Z,58.18
2023-02-06T05:20:06.640Z,59.08
2023-02-06T05:22:35.234Z,60.30
2023-02-06T05:25:03.792Z,61.26
2023-02-06T05:27:32.200Z,62.20
2023-02-06T05:30:00.678Z,64.23
2023-02-06T05:32:29.366Z,64.75
2023-02-06T05:34:57.869Z,63.62
2023-02-06T05:37:26.407Z,62.26
2023-02-06T05:39:54.834Z,61.06
2023-02-06T05:42:23.290Z,60.03
2023-02-06T05:44:51.930Z,58.78
2023-02-06T05:47:20.331Z,58.41
2023-02-06T05:49:48.797Z,59.60
2023-02-06T05:52:17.226Z,60.75
2023-02-06T05:54:45.739Z,61.94
2023-02-06T05:57:14.141Z,63.19
2023-02-06T05:59:42.705Z,64.16
2023-02-06T06:02:11.470Z,63.05
2023-02-06T06:04:40.163Z,61.75
2023-02-06T06:07:09.380Z,60.54
2023-02-06T06:09:37.995Z,59.37
2023-02-06T06:12:06.727Z,58.20
2023-02-06T06:14:35.298Z,59.34
2023-02-06T06:17:03.738Z,60.87
2023-02-06T06:19:32.240Z,62.49
2023-02-06T06:22:00.769Z,64.68
2023-02-06T06:24:29.204Z,64.26
2023-02-06T06:26:59.640Z,62.79
2023-02-06T06:29:28.169Z,61.44
2023-02-06T06:31:56.779Z,60.29
2023-02-06T06:34:26.449Z,59.13
2023-02-06T06:36:54.930Z,58.24
2023-02-06T06:39:23.439Z,59.50
2023-02-06T06:41:51.946Z,60.98
2023-02-06T06:44:20.537Z,62.39
2023-02-06T06:46:49.008Z,64.56
2023-02-06T06:49:17.656Z,64.48
2023-02-06T06:51:46.099Z,63.19
2023-02-06T06:54:15.694Z,61.90
2023-02-06T06:56:44.258Z,60.64
2023-02-06T06:59:12.651Z,59.51
2023-02-06T07:01:41.395Z,58.38
2023-02-06T07:04:09.881Z,59.45
2023-02-06T07:06:38.352Z,61.00
2023-02-06T07:09:06.787Z,62.40
2023-02-06T07:11:35.253Z,64.56
2023-02-06T07:14:04.827Z,64.50
2023-02-06T07:16:33.467Z,63.03
2023-02-06T07:19:02.031Z,61.65
2023-02-06T07:21:30.508Z,60.47
2023-02-06T07:23:59.301Z,59.34
2023-02-06T07:26:27.773Z,58.09
2023-02-06T07:28:56.308Z,59.03
2023-02-06T07:31:24.751Z,60.38
2023-02-06T07:33:53.495Z,61.66
2023-02-06T07:36:22.142Z,63.36
2023-02-06T07:38:50.637Z,65.02
2023-02-06T07:41:19.095Z,63.98
2023-02-06T07:43:47.548Z,62.36
2023-02-06T07:46:16.322Z,60.92
2023-02-06T07:48:44.962Z,59.38
2023-02-06T07:51:14.480Z,58.31
2023-02-06T07:53:43.208Z,59.36
2023-02-06T07:56:18.656Z,60.60
2023-02-06T07:58:51.629Z,61.65
2023-02-06T08:01:21.950Z,62.49
2023-02-06T08:03:54.903Z,64.06
2023-02-06T08:06:24.917Z,63.41
2023-02-06T08:08:56.231Z,61.81
2023-02-06T08:11:27.998Z,60.41
2023-02-06T08:13:56.910Z,59.13
2023-02-06T08:16:25.595Z,58.09
2023-02-06T08:18:54.345Z,59.13
2023-02-06T08:21:25.296Z,60.26
2023-02-06T08:23:58.763Z,61.71
2023-02-06T08:26:29.442Z,63.10
2023-02-06T08:29:01.325Z,64.50
2023-02-06T08:31:36.251Z,63.25
2023-02-06T08:34:06.883Z,61.24
2023-02-06T08:36:35.962Z,59.54
2023-02-06T08:39:05.275Z,57.90
2023-02-06T08:41:39.335Z,58.90
2023-02-06T08:44:14.778Z,60.30
2023-02-06T08:46:45.301Z,61.54
2023-02-06T08:49:16.259Z,62.68
2023-02-06T08:51:45.433Z,64.02
2023-02-06T08:54:16.581Z,62.14
2023-02-06T08:56:45.985Z,60.36
2023-02-06T08:59:16.505Z,58.29
2023-02-06T09:01:46.445Z,57.91
2023-02-06T09:04:16.001Z,59.05
2023-02-06T09:06:48.063Z,60.28
2023-02-06T09:09:16.602Z,61.45
2023-02-06T09:11:45.057Z,62.23
2023-02-06T09:14:18.078Z,62.74
2023-02-06T09:16:46.811Z,63.88
2023-02-06T09:19:15.354Z,61.73
2023-02-06T09:21:43.873Z,59.55
2023-02-06T09:24:12.430Z,57.22
2023-02-06T09:26:58.574Z,57.80
2023-02-06T09:29:29.491Z,59.14
2023-02-06T09:31:58.369Z,59.85
2023-02-06T09:34:27.930Z,60.84
2023-02-06T09:36:58.042Z,61.23
2023-02-06T09:39:26.759Z,61.27
2023-02-06T09:42:03.685Z,61.42
2023-02-06T09:45:12.944Z,62.27
2023-02-06T09:47:47.606Z,64.08
2023-02-06T09:51:04.786Z,61.19
2023-02-06T09:53:42.190Z,58.06
2023-02-06T09:56:10.569Z,55.87
2023-02-06T09:58:49.881Z,56.84
2023-02-06T10:01:33.737Z,57.54
2023-02-06T10:04:02.222Z,57.89
2023-02-06T10:06:41.582Z,58.02
2023-02-06T10:09:16.655Z,57.72
2023-02-06T10:11:54.695Z,57.69
2023-02-06T10:15:01.432Z,57.96
2023-02-06T10:17:45.768Z,56.46
2023-02-06T10:20:21.644Z,56.12
2023-02-06T10:23:30.839Z,56.04
2023-02-06T10:26:17.975Z,55.15
2023-02-06T10:28:52.939Z,55.16
2023-02-06T10:31:54.169Z,54.73
2023-02-06T10:34:35.899Z,55.23
2023-02-06T10:37:25.476Z,54.43
2023-02-06T10:39:56.380Z,54.82
2023-02-06T10:42:33.586Z,53.71
2023-02-06T10:45:36.396Z,53.71
2023-02-06T10:48:19.587Z,51.74
2023-02-06T10:51:07.802Z,50.92
2023-02-06T10:53:49.011Z,50.75
2023-02-06T10:56:22.846Z,51.12
2023-02-06T10:59:11.192Z,50.32
2023-02-06T11:01:41.539Z,55.19
2023-02-06T11:04:35.493Z,52.97
2023-02-06T11:07:15.413Z,51.86
2023-02-06T11:09:44.945Z,52.52
2023-02-06T11:12:38.446Z,52.42
2023-02-06T11:15:18.393Z,50.90
2023-02-06T11:17:46.944Z,54.61
2023-02-06T11:20:17.603Z,50.76
2023-02-06T11:22:52.780Z,51.25
2023-02-06T11:25:31.496Z,47.06
2023-02-06T11:28:01.585Z,46.57
2023-02-06T11:30:38.084Z,47.12
2023-02-06T11:33:20.190Z,48.97
2023-02-06T11:36:00.213Z,49.93
2023-02-06T11:38:30.397Z,48.32
2023-02-06T11:41:16.611Z,49.25
2023-02-06T11:43:51.115Z,49.27
2023-02-06T11:46:19.571Z,51.39
2023-02-06T11:49:01.286Z,53.97
2023-02-06T11:51:54.111Z,53.49
2023-02-06T11:54:35.633Z,53.88
2023-02-06T11:57:23.652Z,53.49
2023-02-06T11:59:55.207Z,53.01
2023-02-06T12:02:36.719Z,51.39
2023-02-06T12:05:13.573Z,49.84
2023-02-06T12:07:56.624Z,47.61
2023-02-06T12:10:26.496Z,45.52
2023-02-06T12:13:06.020Z,42.80
2023-02-06T12:15:47.872Z,39.78
2023-02-06T12:18:27.360Z,38.88
2023-02-06T12:21:19.572Z,39.67
2023-02-06T12:23:53.124Z,36.48
2023-02-06T12:26:24.972Z,35.84
2023-02-06T12:29:19.786Z,33.90
2023-02-06T12:32:18.641Z,34.27
2023-02-06T12:34:57.291Z,33.20
2023-02-06T12:37:51.725Z,32.47
2023-02-06T12:40:43.522Z,29.79
2023-02-06T12:43:16.969Z,29.02
2023-02-06T12:45:57.094Z,28.64
2023-02-06T12:48:30.024Z,27.32
2023-02-06T12:51:26.870Z,26.48
2023-02-06T12:54:03.337Z,25.60
2023-02-06T12:56:57.540Z,25.21
2023-02-06T12:59:43.736Z,24.69
2023-02-06T13:03:04.053Z,24.06
2023-02-06T13:05:43.431Z,23.61
2023-02-06T13:08:17.675Z,23.29
2023-02-06T13:10:59.657Z,22.77
2023-02-06T13:13:41.976Z,22.11
2023-02-06T13:16:11.008Z,21.96
2023-02-06T13:18:42.577Z,21.75
2023-02-06T13:21:23.013Z,21.10
2023-02-06T13:24:03.405Z,20.76
2023-02-06T13:26:53.562Z,20.53
2023-02-06T13:29:27.667Z,20.45
2023-02-06T13:32:23.006Z,20.37
2023-02-06T13:34:54.116Z,20.57
2023-02-06T13:37:44.499Z,20.58
2023-02-06T13:40:16.263Z,20.20
2023-02-06T13:43:04.926Z,19.65
2023-02-06T13:45:46.688Z,19.76
2023-02-06T13:48:46.635Z,19.89
2023-02-06T13:51:19.227Z,20.42
2023-02-06T13:54:20.675Z,21.33
2023-02-06T13:57:28.788Z,21.57
2023-02-06T14:00:18.151Z,21.24
2023-02-06T14:03:26.363Z,21.90
2023-02-06T14:06:11.356Z,23.23
2023-02-06T14:09:09.308Z,24.25
2023-02-06T14:12:08.647Z,23.95
2023-02-06T14:15:15.451Z,23.95
2023-02-06T14:18:22.206Z,23.88
2023-02-06T14:20:53.397Z,22.63
2023-02-06T14:23:46.929Z,22.31
2023-02-06T14:26:47.179Z,22.00
2023-02-06T14:29:37.315Z,22.57
2023-02-06T14:32:11.769Z,23.56
2023-02-06T14:34:49.845Z,24.42
2023-02-06T14:37:59.723Z,24.85
2023-02-06T14:40:34.209Z,26.25
2023-02-06T14:43:06.540Z,27.61
2023-02-06T14:45:42.020Z,28.69
2023-02-06T14:48:25.300Z,29.75
2023-02-06T14:50:57.659Z,31.42
2023-02-06T14:53:33.522Z,32.55
2023-02-06T14:56:28.100Z,34.01
2023-02-06T14:58:57.406Z,35.37
2023-02-06T15:01:29.346Z,36.07
2023-02-06T15:04:13.327Z,37.03
2023-02-06T15:06:57.014Z,38.88
2023-02-06T15:09:30.248Z,39.74
2023-02-06T15:12:04.045Z,40.53
2023-02-06T15:14:35.220Z,41.57
2023-02-06T15:17:03.790Z,42.65
2023-02-06T15:19:35.870Z,43.78
2023-02-06T15:22:11.162Z,44.47
2023-02-06T15:25:06.540Z,44.84
2023-02-06T15:27:39.014Z,45.98
2023-02-06T15:30:26.644Z,47.58
2023-02-06T15:32:56.357Z,48.25
2023-02-06T15:35:30.749Z,49.26
2023-02-06T15:38:11.862Z,49.13
2023-02-06T15:40:46.680Z,48.58
2023-02-06T15:43:18.196Z,50.59
2023-02-06T15:45:49.177Z,51.27
2023-02-06T15:48:28.275Z,51.83
2023-02-06T15:50:58.658Z,52.03
2023-02-06T15:53:36.705Z,52.54
2023-02-06T15:56:09.802Z,54.09
2023-02-06T15:58:38.205Z,54.27
2023-02-06T16:01:18.837Z,54.62
2023-02-06T16:03:52.362Z,54.80
2023-02-06T16:06:20.839Z,55.79
2023-02-06T16:08:51.948Z,56.26
2023-02-06T16:11:53.272Z,57.04
2023-02-06T16:14:33.132Z,57.34
2023-02-06T16:17:23.528Z,58.08
2023-02-06T16:20:37.380Z,59.26
2023-02-06T16:23:24.221Z,59.10
2023-02-06T16:26:20.548Z,60.21
2023-02-06T16:28:55.073Z,60.19
2023-02-06T16:31:26.206Z,60.65
2023-02-06T16:34:03.331Z,61.24
2023-02-06T16:36:33.832Z,62.82
2023-02-06T16:39:04.550Z,61.94
2023-02-06T16:41:36.318Z,61.51
2023-02-06T16:44:12.810Z,60.32
2023-02-06T16:46:42.079Z,58.51
2023-02-06T16:49:15.668Z,56.82
2023-02-06T16:51:46.186Z,57.36
2023-02-06T16:54:25.600Z,58.20
2023-02-06T16:56:56.275Z,58.89
2023-02-06T16:59:24.729Z,59.68
2023-02-06T17:01:53.220Z,60.30
2023-02-06T17:04:21.723Z,60.86
2023-02-06T17:06:50.682Z,61.25
2023-02-06T17:09:19.622Z,61.85
2023-02-06T17:11:48.307Z,62.27
2023-02-06T17:14:16.752Z,63.46
2023-02-06T17:16:46.146Z,64.29
2023-02-06T17:19:15.757Z,62.74
2023-02-06T17:21:44.289Z,60.78
2023-02-06T17:24:12.745Z,58.61
2023-02-06T17:26:41.251Z,57.27
2023-02-06T17:29:13.708Z,58.22
2023-02-06T17:31:42.111Z,59.22
2023-02-06T17:34:10.675Z,59.81
2023-02-06T17:36:41.114Z,60.22
2023-02-06T17:39:13.052Z,61.33
2023-02-06T17:41:41.522Z,62.32
2023-02-06T17:44:11.861Z,64.06
2023-02-06T17:46:40.397Z,64.72
2023-02-06T17:49:09.053Z,63.11
2023-02-06T17:51:40.225Z,61.36
2023-02-06T17:54:09.707Z,59.68
2023-02-06T17:56:38.746Z,57.87
2023-02-06T17:59:07.223Z,58.55
2023-02-06T18:01:35.774Z,59.80
2023-02-06T18:04:04.780Z,60.88
2023-02-06T18:06:36.554Z,61.69
2023-02-06T18:09:05.561Z,62.45
2023-02-06T18:11:36.036Z,64.07
2023-02-06T18:14:04.772Z,64.56
2023-02-06T18:16:34.113Z,63.08
2023-02-06T18:19:03.335Z,61.48
2023-02-06T18:21:31.943Z,59.99
2023-02-06T18:24:00.431Z,58.12
2023-02-06T18:26:29.051Z,58.20
2023-02-06T18:28:57.602Z,59.11
2023-02-06T18:31:33.483Z,60.27
2023-02-06T18:34:08.199Z,61.37
2023-02-06T18:36:38.214Z,61.95
2023-02-06T18:39:06.968Z,62.43
2023-02-06T18:41:53.913Z,63.16
2023-02-06T18:44:22.562Z,63.08
2023-02-06T18:46:51.388Z,62.77
2023-02-06T18:49:19.945Z,62.42
2023-02-06T18:51:48.544Z,61.54
2023-02-06T18:54:17.722Z,60.54
2023-02-06T18:56:46.740Z,59.59
2023-02-06T18:59:17.045Z,57.81
2023-02-06T19:01:45.650Z,58.03
2023-02-06T19:04:14.178Z,58.89
2023-02-06T19:06:44.774Z,59.63
2023-02-06T19:09:21.282Z,60.41
2023-02-06T19:11:49.793Z,60.95
2023-02-06T19:14:22.702Z,62.80
2023-02-06T19:16:53.020Z,64.37
2023-02-06T19:19:21.898Z,64.47
2023-02-06T19:21:50.470Z,62.74
2023-02-06T19:24:18.982Z,61.24
2023-02-06T19:26:47.498Z,59.55
2023-02-06T19:29:34.433Z,57.69
2023-02-06T19:32:05.883Z,58.48
2023-02-06T19:34:37.327Z,59.47
2023-02-06T19:37:08.853Z,60.84
2023-02-06T19:39:40.454Z,61.86
2023-02-06T19:42:10.772Z,62.58
2023-02-06T19:44:39.269Z,64.67
2023-02-06T19:47:07.659Z,64.20
2023-02-06T19:49:36.295Z,61.94
2023-02-06T19:52:04.842Z,60.67
2023-02-06T19:54:33.444Z,59.44
2023-02-06T19:57:01.899Z,57.92
2023-02-06T19:59:30.747Z,58.76
2023-02-06T20:02:01.863Z,60.07
2023-02-06T20:04:34.432Z,61.31
2023-02-06T20:07:03.421Z,62.32
2023-02-06T20:09:32.282Z,63.83
2023-02-06T20:12:00.805Z,64.71
2023-02-06T20:14:29.504Z,63.48
2023-02-06T20:16:58.099Z,61.78
2023-02-06T20:19:28.969Z,60.23
2023-02-06T20:22:00.293Z,58.35
2023-02-06T20:24:31.465Z,58.21
2023-02-06T20:27:02.589Z,59.40
2023-02-06T20:29:34.673Z,60.67
2023-02-06T20:32:05.271Z,60.76
2023-02-06T20:34:35.022Z,61.24
2023-02-06T20:37:04.818Z,62.78
2023-02-06T20:39:33.622Z,64.60
2023-02-06T20:42:02.308Z,63.94
2023-02-06T20:44:31.668Z,62.63
2023-02-06T20:47:01.278Z,61.48
2023-02-06T20:49:31.433Z,60.47
2023-02-06T20:51:59.981Z,59.37
2023-02-06T20:54:28.555Z,57.59
2023-02-06T20:56:57.287Z,58.35
2023-02-06T20:59:25.818Z,60.20
2023-02-06T21:01:54.745Z,61.28
2023-02-06T21:04:23.202Z,62.13
2023-02-06T21:06:51.721Z,64.11
2023-02-06T21:09:20.194Z,64.96
2023-02-06T21:11:50.367Z,62.99
2023-02-06T21:14:19.921Z,60.88
2023-02-06T21:16:49.244Z,59.90
2023-02-06T21:19:20.186Z,58.65
2023-02-06T21:21:49.602Z,58.49
2023-02-06T21:24:18.920Z,59.71
2023-02-06T21:26:48.356Z,60.68
2023-02-06T21:29:17.165Z,62.24
2023-02-06T21:31:46.461Z,64.18
2023-02-06T21:34:25.816Z,64.40
2023-02-06T21:36:54.944Z,62.46
2023-02-06T21:39:27.293Z,60.81
2023-02-06T21:41:55.836Z,59.70
2023-02-06T21:44:26.596Z,58.19
2023-02-06T21:46:56.340Z,58.70
2023-02-06T21:49:24.983Z,60.13
2023-02-06T21:51:53.611Z,61.34
2023-02-06T21:54:22.673Z,63.09
2023-02-06T21:56:51.828Z,64.45
2023-02-06T21:59:20.480Z,63.44
2023-02-06T22:01:49.035Z,61.77
2023-02-06T22:04:17.599Z,60.29
2023-02-06T22:06:48.122Z,58.71
2023-02-06T22:09:19.063Z,58.19
2023-02-06T22:11:47.827Z,59.66
2023-02-06T22:14:18.264Z,60.56
2023-02-06T22:16:47.262Z,62.20
2023-02-06T22:19:16.744Z,63.92
2023-02-06T22:21:46.127Z,64.33
2023-02-06T22:24:14.998Z,63.15
2023-02-06T22:26:44.064Z,61.68
2023-02-06T22:29:16.144Z,60.03
2023-02-06T22:31:45.545Z,58.13
2023-02-06T22:34:20.109Z,58.60
2023-02-06T22:36:51.412Z,60.19
2023-02-06T22:39:20.270Z,61.59
2023-02-06T22:41:49.528Z,63.69
2023-02-06T22:44:20.071Z,65.22
2023-02-06T22:46:52.089Z,63.95
2023-02-06T22:49:22.322Z,62.31
2023-02-06T22:51:51.012Z,60.60
2023-02-06T22:54:19.763Z,58.53
2023-02-06T22:56:48.497Z,57.68
2023-02-06T22:59:23.378Z,59.01
2023-02-06T23:01:57.440Z,60.57
2023-02-06T23:04:29.615Z,61.85
2023-02-06T23:06:58.331Z,63.86
2023-02-06T23:09:33.951Z,65.10
2023-02-06T23:12:03.906Z,63.72
2023-02-06T23:14:33.811Z,62.15
2023-02-06T23:17:03.582Z,60.71
2023-02-06T23:19:32.643Z,59.45
2023-02-06T23:22:01.115Z,57.94
2023-02-06T23:24:29.612Z,58.71
2023-02-06T23:26:58.182Z,59.84
2023-02-06T23:29:26.737Z,61.15
2023-02-06T23:31:56.123Z,62.35
2023-02-06T23:34:24.681Z,64.14
2023-02-06T23:36:53.508Z,65.37
2023-02-06T23:39:22.417Z,64.17
2023-02-06T23:41:51.098Z,62.53
2023-02-06T23:44:19.898Z,61.04
2023-02-06T23:46:48.445Z,59.59
2023-02-06T23:49:17.656Z,57.83
2023-02-06T23:51:47.300Z,58.72
2023-02-06T23:54:15.839Z,60.19
2023-02-06T23:56:44.542Z,61.54
2023-02-06T23:59:15.722Z,62.82
